createdAt,value
2023-03-23T15:59:56.768Z,66.01
2023-03-23T16:05:21.384Z,66.07
2023-03-23T16:10:46.848Z,66.11
2023-03-23T16:16:51.036Z,66.33
2023-03-23T16:22:17.136Z,66.57
2023-03-23T16:27:43.365Z,67.03
2023-03-23T16:33:07.604Z,67.35
2023-03-23T16:38:33.699Z,67.43
2023-03-23T16:44:15.213Z,67.63
2023-03-23T16:49:40.367Z,68.07
2023-03-23T16:55:06.103Z,68.22
2023-03-23T17:00:30.756Z,68.29
2023-03-23T17:05:55.421Z,68.60
2023-03-23T17:11:19.980Z,69.08
2023-03-23T17:16:45.507Z,69.24
2023-03-23T17:22:09.742Z,69.41
2023-03-23T17:27:34.531Z,69.52
2023-03-23T17:32:58.726Z,69.59
2023-03-23T17:38:23.120Z,69.70
2023-03-23T17:43:47.306Z,69.94
2023-03-23T17:49:12.837Z,70.00
2023-03-23T17:54:37.576Z,70.26
2023-03-23T18:00:01.669Z,70.21
2023-03-23T18:05:32.295Z,70.16
2023-03-23T18:10:57.773Z,70.17
2023-03-23T18:16:21.899Z,70.36
2023-03-23T18:21:46.588Z,70.55
2023-03-23T18:27:11.260Z,70.41
2023-03-23T18:32:36.882Z,70.67
2023-03-23T18:38:01.580Z,70.68
2023-03-23T18:43:26.139Z,70.62
2023-03-23T18:48:50.525Z,70.41
2023-03-23T18:54:18.099Z,69.96
2023-03-23T18:59:42.604Z,69.64
2023-03-23T19:05:51.058Z,69.24
2023-03-23T19:11:19.450Z,69.15
2023-03-23T19:16:43.463Z,69.03
2023-03-23T19:22:09.282Z,68.87
2023-03-23T19:33:01.858Z,68.36
2023-03-23T19:38:26.570Z,68.22
2023-03-23T19:43:51.228Z,68.39
2023-03-23T19:49:15.505Z,68.47
2023-03-23T19:54:41.089Z,68.54
2023-03-23T20:00:08.375Z,68.66
2023-03-23T20:05:36.897Z,68.72
2023-03-23T20:11:12.274Z,69.00
2023-03-23T20:16:39.026Z,69.20
2023-03-23T20:22:05.016Z,69.47
2023-03-23T20:27:57.685Z,69.45
2023-03-23T20:33:42.596Z,69.40
2023-03-23T20:39:12.029Z,69.53
2023-03-23T20:44:40.552Z,69.63
2023-03-23T20:50:07.527Z,69.74
2023-03-23T20:55:33.554Z,70.24
2023-03-23T21:01:01.910Z,70.96
2023-03-23T21:06:29.741Z,71.28
2023-03-23T21:11:55.920Z,71.57
2023-03-23T21:17:48.194Z,71.67
2023-03-23T21:24:01.662Z,71.62
2023-03-23T21:29:28.324Z,71.81
2023-03-23T21:34:53.778Z,72.09
2023-03-23T21:40:21.288Z,72.53
2023-03-23T21:45:46.670Z,72.67
2023-03-23T21:51:15.222Z,72.69
2023-03-23T21:56:40.435Z,72.78
2023-03-23T22:02:04.420Z,72.77
2023-03-23T22:07:31.088Z,72.88
2023-03-23T22:12:57.436Z,73.11
2023-03-23T22:18:22.298Z,73.13
2023-03-23T22:23:47.248Z,73.26
2023-03-23T22:29:11.804Z,73.16
2023-03-23T22:34:36.084Z,73.42
2023-03-23T22:40:00.988Z,73.52
2023-03-23T22:45:27.787Z,73.61
2023-03-23T22:50:53.378Z,73.75
2023-03-23T22:56:18.373Z,73.76
2023-03-23T23:01:43.013Z,73.51
2023-03-23T23:07:12.787Z,73.38
2023-03-23T23:12:37.661Z,73.21
2023-03-23T23:18:05.521Z,73.21
2023-03-23T23:23:30.201Z,73.29
2023-03-23T23:28:54.869Z,73.42
2023-03-23T23:34:19.410Z,73.52
2023-03-23T23:39:43.582Z,73.63
2023-03-23T23:45:10.704Z,73.56
2023-03-23T23:50:36.124Z,73.46
2023-03-23T23:56:04.038Z,73.37
